sensor_id;sensor_type;location;lat;lon;timestamp;pressure;altitude;pressure_sealevel;temperature;humidity
70546;BME280;58098;51.680;5.134;2023-05-22T00:01:45;101589.41;;;14.47;100.00
70546;BME280;58098;51.680;5.134;2023-05-22T00:04:13;101596.00;;;14.42;100.00
70546;BME280;58098;51.680;5.134;2023-05-22T00:06:46;101585.28;;;14.34;100.00
70546;BME280;58098;51.680;5.134;2023-05-22T00:09:11;101568.56;;;14.35;100.00
70546;BME280;58098;51.680;5.134;2023-05-22T00:11:36;101578.59;;;14.30;100.00
70546;BME280;58098;51.680;5.134;2023-05-22T00:14:03;101585.31;;;14.23;100.00
70546;BME280;58098;51.680;5.134;2023-05-22T00:16:29;101578.06;;;14.15;100.00
70546;BME280;58098;51.680;5.134;2023-05-22T00:18:54;101579.16;;;14.13;100.00
70546;BME280;58098;51.680;5.134;2023-05-22T00:21:21;101574.13;;;14.10;100.00
70546;BME280;58098;51.680;5.134;2023-05-22T00:23:46;101584.63;;;14.10;100.00
70546;BME280;58098;51.680;5.134;2023-05-22T00:26:15;101560.47;;;13.95;100.00
70546;BME280;58098;51.680;5.134;2023-05-22T00:28:41;101571.56;;;13.99;100.00
70546;BME280;58098;51.680;5.134;2023-05-22T00:31:06;101571.69;;;13.97;100.00
70546;BME280;58098;51.680;5.134;2023-05-22T00:33:31;101567.31;;;13.86;100.00
70546;BME280;58098;51.680;5.134;2023-05-22T00:35:58;101568.47;;;13.94;100.00
70546;BME280;58098;51.680;5.134;2023-05-22T00:38:31;101568.03;;;13.88;100.00
70546;BME280;58098;51.680;5.134;2023-05-22T00:40:59;101568.03;;;13.88;100.00
70546;BME280;58098;51.680;5.134;2023-05-22T00:43:24;101564.22;;;13.81;100.00
70546;BME280;58098;51.680;5.134;2023-05-22T00:45:50;101569.69;;;13.89;100.00
70546;BME280;58098;51.680;5.134;2023-05-22T00:48:16;101569.94;;;13.86;100.00
70546;BME280;58098;51.680;5.134;2023-05-22T00:50:42;101564.22;;;13.81;100.00
70546;BME280;58098;51.680;5.134;2023-05-22T00:53:08;101563.91;;;13.75;100.00
70546;BME280;58098;51.680;5.134;2023-05-22T00:55:33;101551.88;;;13.72;100.00
70546;BME280;58098;51.680;5.134;2023-05-22T00:58:01;101545.94;;;13.59;100.00
70546;BME280;58098;51.680;5.134;2023-05-22T01:00:33;101570.69;;;13.66;100.00
70546;BME280;58098;51.680;5.134;2023-05-22T01:02:59;101572.63;;;13.64;100.00
70546;BME280;58098;51.680;5.134;2023-05-22T01:05:25;101573.69;;;13.62;100.00
70546;BME280;58098;51.680;5.134;2023-05-22T01:07:51;101582.41;;;13.62;100.00
70546;BME280;58098;51.680;5.134;2023-05-22T01:10:17;101583.59;;;13.58;100.00
70546;BME280;58098;51.680;5.134;2023-05-22T01:15:36;101564.56;;;13.45;100.00
70546;BME280;58098;51.680;5.134;2023-05-22T01:18:52;101563.00;;;13.43;100.00
70546;BME280;58098;51.680;5.134;2023-05-22T01:29:42;101575.19;;;13.33;100.00
70546;BME280;58098;51.680;5.134;2023-05-22T01:32:13;101567.19;;;13.23;100.00
70546;BME280;58098;51.680;5.134;2023-05-22T01:34:43;101560.03;;;13.25;100.00
70546;BME280;58098;51.680;5.134;2023-05-22T01:37:09;101572.69;;;13.20;100.00
70546;BME280;58098;51.680;5.134;2023-05-22T01:39:35;101568.38;;;13.19;100.00
70546;BME280;58098;51.680;5.134;2023-05-22T01:42:01;101559.31;;;13.12;100.00
70546;BME280;58098;51.680;5.134;2023-05-22T01:44:27;101556.00;;;13.10;100.00
70546;BME280;58098;51.680;5.134;2023-05-22T01:46:52;101559.81;;;13.17;100.00
70546;BME280;58098;51.680;5.134;2023-05-22T01:49:18;101557.19;;;13.06;100.00
70546;BME280;58098;51.680;5.134;2023-05-22T01:51:51;101566.25;;;13.13;100.00
70546;BME280;58098;51.680;5.134;2023-05-22T01:54:30;101554.06;;;13.01;100.00
70546;BME280;58098;51.680;5.134;2023-05-22T01:57:07;101559.88;;;13.04;100.00
70546;BME280;58098;51.680;5.134;2023-05-22T01:59:48;101547.88;;;13.02;100.00
70546;BME280;58098;51.680;5.134;2023-05-22T02:02:20;101550.03;;;12.97;100.00
70546;BME280;58098;51.680;5.134;2023-05-22T02:04:51;101540.00;;;12.91;100.00
70546;BME280;58098;51.680;5.134;2023-05-22T02:07:20;101557.88;;;12.97;100.00
70546;BME280;58098;51.680;5.134;2023-05-22T02:09:46;101547.72;;;12.92;100.00
70546;BME280;58098;51.680;5.134;2023-05-22T02:12:13;101537.88;;;12.85;100.00
70546;BME280;58098;51.680;5.134;2023-05-22T02:14:40;101529.19;;;12.84;100.00
70546;BME280;58098;51.680;5.134;2023-05-22T02:17:06;101540.13;;;12.89;100.00
70546;BME280;58098;51.680;5.134;2023-05-22T02:19:34;101521.69;;;12.80;100.00
70546;BME280;58098;51.680;5.134;2023-05-22T02:22:00;101533.59;;;12.84;100.00
70546;BME280;58098;51.680;5.134;2023-05-22T02:24:25;101537.97;;;12.83;100.00
70546;BME280;58098;51.680;5.134;2023-05-22T02:26:50;101527.84;;;12.79;100.00
70546;BME280;58098;51.680;5.134;2023-05-22T02:29:16;101527.28;;;12.75;100.00
70546;BME280;58098;51.680;5.134;2023-05-22T02:31:41;101540.50;;;12.85;100.00
70546;BME280;58098;51.680;5.134;2023-05-22T02:34:06;101534.03;;;12.78;100.00
70546;BME280;58098;51.680;5.134;2023-05-22T02:36:32;101538.09;;;12.82;100.00
70546;BME280;58098;51.680;5.134;2023-05-22T02:38:58;101520.50;;;12.73;100.00
70546;BME280;58098;51.680;5.134;2023-05-22T02:41:24;101540.94;;;12.79;100.00
70546;BME280;58098;51.680;5.134;2023-05-22T02:43:49;101531.41;;;12.78;100.00
70546;BME280;58098;51.680;5.134;2023-05-22T02:46:14;101522.84;;;12.76;100.00
70546;BME280;58098;51.680;5.134;2023-05-22T02:48:40;101521.91;;;12.77;100.00
70546;BME280;58098;51.680;5.134;2023-05-22T02:51:05;101508.56;;;12.69;100.00
70546;BME280;58098;51.680;5.134;2023-05-22T02:53:30;101514.03;;;12.66;100.00
70546;BME280;58098;51.680;5.134;2023-05-22T02:55:59;101504.63;;;12.63;100.00
70546;BME280;58098;51.680;5.134;2023-05-22T02:58:25;101508.56;;;12.57;100.00
70546;BME280;58098;51.680;5.134;2023-05-22T03:00:51;101517.38;;;12.68;100.00
70546;BME280;58098;51.680;5.134;2023-05-22T03:03:19;101516.56;;;12.67;100.00
70546;BME280;58098;51.680;5.134;2023-05-22T03:05:44;101514.88;;;12.66;100.00
70546;BME280;58098;51.680;5.134;2023-05-22T03:08:10;101522.72;;;12.66;100.00
70546;BME280;58098;51.680;5.134;2023-05-22T03:10:37;101487.84;;;12.43;100.00
70546;BME280;58098;51.680;5.134;2023-05-22T03:13:02;101514.16;;;12.64;100.00
70546;BME280;58098;51.680;5.134;2023-05-22T03:15:27;101504.28;;;12.56;100.00
70546;BME280;58098;51.680;5.134;2023-05-22T03:17:53;101502.63;;;12.55;100.00
70546;BME280;58098;51.680;5.134;2023-05-22T03:20:18;101515.72;;;12.55;100.00
70546;BME280;58098;51.680;5.134;2023-05-22T03:22:44;101507.38;;;12.50;100.00
70546;BME280;58098;51.680;5.134;2023-05-22T03:25:12;101517.38;;;12.56;100.00
70546;BME280;58098;51.680;5.134;2023-05-22T03:27:38;101496.91;;;12.50;100.00
70546;BME280;58098;51.680;5.134;2023-05-22T03:30:05;101506.06;;;12.56;100.00
70546;BME280;58098;51.680;5.134;2023-05-22T03:32:31;101497.00;;;12.49;100.00
70546;BME280;58098;51.680;5.134;2023-05-22T03:34:56;101506.53;;;12.50;100.00
70546;BME280;58098;51.680;5.134;2023-05-22T03:37:22;101488.09;;;12.40;100.00
70546;BME280;58098;51.680;5.134;2023-05-22T03:39:48;101494.97;;;12.41;100.00
70546;BME280;58098;51.680;5.134;2023-05-22T03:42:13;101507.81;;;12.44;100.00
70546;BME280;58098;51.680;5.134;2023-05-22T03:44:38;101498.91;;;12.47;100.00
70546;BME280;58098;51.680;5.134;2023-05-22T03:47:04;101504.16;;;12.47;100.00
70546;BME280;58098;51.680;5.134;2023-05-22T03:49:29;101496.03;;;12.39;100.00
70546;BME280;58098;51.680;5.134;2023-05-22T03:51:55;101498.41;;;12.42;100.00
70546;BME280;58098;51.680;5.134;2023-05-22T03:54:20;101506.75;;;12.47;100.00
70546;BME280;58098;51.680;5.134;2023-05-22T03:56:45;101501.25;;;12.39;100.00
70546;BME280;58098;51.680;5.134;2023-05-22T03:59:10;101504.38;;;12.44;100.00
70546;BME280;58098;51.680;5.134;2023-05-22T04:01:36;101498.91;;;12.47;100.00
70546;BME280;58098;51.680;5.134;2023-05-22T04:04:03;101509.25;;;12.48;100.00
70546;BME280;58098;51.680;5.134;2023-05-22T04:06:29;101501.41;;;12.48;100.00
70546;BME280;58098;51.680;5.134;2023-05-22T04:08:57;101504.63;;;12.52;100.00
70546;BME280;58098;51.680;5.134;2023-05-22T04:11:22;101502.72;;;12.54;100.00
70546;BME280;58098;51.680;5.134;2023-05-22T04:13:48;101504.28;;;12.56;100.00
70546;BME280;58098;51.680;5.134;2023-05-22T04:16:15;101513.69;;;12.59;100.00
70546;BME280;58098;51.680;5.134;2023-05-22T04:18:41;101512.03;;;12.58;100.00
70546;BME280;58098;51.680;5.134;2023-05-22T04:21:06;101515.09;;;12.63;100.00
70546;BME280;58098;51.680;5.134;2023-05-22T04:23:33;101508.09;;;12.64;100.00
70546;BME280;58098;51.680;5.134;2023-05-22T04:25:58;101494.06;;;12.65;100.00
70546;BME280;58098;51.680;5.134;2023-05-22T04:28:26;101502.03;;;12.74;100.00
70546;BME280;58098;51.680;5.134;2023-05-22T04:30:52;101500.00;;;12.67;100.00
70546;BME280;58098;51.680;5.134;2023-05-22T04:33:18;101508.09;;;12.75;100.00
70546;BME280;58098;51.680;5.134;2023-05-22T04:35:43;101505.25;;;12.67;100.00
70546;BME280;58098;51.680;5.134;2023-05-22T04:38:09;101503.94;;;12.72;100.00
70546;BME280;58098;51.680;5.134;2023-05-22T04:40:34;101513.56;;;12.83;100.00
70546;BME280;58098;51.680;5.134;2023-05-22T04:43:02;101504.91;;;12.82;100.00
70546;BME280;58098;51.680;5.134;2023-05-22T04:45:27;101515.72;;;12.89;100.00
70546;BME280;58098;51.680;5.134;2023-05-22T04:47:53;101518.22;;;12.90;100.00
70546;BME280;58098;51.680;5.134;2023-05-22T04:50:19;101507.03;;;12.88;100.00
70546;BME280;58098;51.680;5.134;2023-05-22T04:52:45;101506.78;;;12.91;100.00
70546;BME280;58098;51.680;5.134;2023-05-22T04:55:11;101516.06;;;12.95;100.00
70546;BME280;58098;51.680;5.134;2023-05-22T04:57:38;101529.56;;;13.02;100.00
70546;BME280;58098;51.680;5.134;2023-05-22T05:00:04;101519.53;;;12.96;100.00
70546;BME280;58098;51.680;5.134;2023-05-22T05:02:30;101520.50;;;13.06;100.00
70546;BME280;58098;51.680;5.134;2023-05-22T05:04:55;101524.56;;;13.10;100.00
70546;BME280;58098;51.680;5.134;2023-05-22T05:07:21;101510.88;;;13.06;100.00
70546;BME280;58098;51.680;5.134;2023-05-22T05:09:47;101522.41;;;13.15;100.00
70546;BME280;58098;51.680;5.134;2023-05-22T05:12:13;101533.13;;;13.23;100.00
70546;BME280;58098;51.680;5.134;2023-05-22T05:14:38;101537.16;;;13.27;100.00
70546;BME280;58098;51.680;5.134;2023-05-22T05:17:03;101534.44;;;13.29;100.00
70546;BME280;58098;51.680;5.134;2023-05-22T05:19:29;101530.00;;;13.29;100.00
70546;BME280;58098;51.680;5.134;2023-05-22T05:21:54;101519.41;;;13.31;100.00
70546;BME280;58098;51.680;5.134;2023-05-22T05:24:19;101525.13;;;13.36;100.00
70546;BME280;58098;51.680;5.134;2023-05-22T05:26:45;101529.97;;;13.51;100.00
70546;BME280;58098;51.680;5.134;2023-05-22T05:29:10;101526.16;;;13.55;100.00
70546;BME280;58098;51.680;5.134;2023-05-22T05:31:37;101528.97;;;13.63;100.00
70546;BME280;58098;51.680;5.134;2023-05-22T05:34:02;101528.28;;;13.61;100.00
70546;BME280;58098;51.680;5.134;2023-05-22T05:36:28;101531.81;;;13.71;100.00
70546;BME280;58098;51.680;5.134;2023-05-22T05:38:53;101529.44;;;13.79;100.00
70546;BME280;58098;51.680;5.134;2023-05-22T05:41:18;101547.25;;;13.97;100.00
70546;BME280;58098;51.680;5.134;2023-05-22T05:43:44;101538.03;;;14.02;100.00
70546;BME280;58098;51.680;5.134;2023-05-22T05:46:09;101526.44;;;14.05;100.00
70546;BME280;58098;51.680;5.134;2023-05-22T05:48:35;101530.34;;;14.10;100.00
70546;BME280;58098;51.680;5.134;2023-05-22T05:51:00;101533.06;;;14.20;100.00
70546;BME280;58098;51.680;5.134;2023-05-22T05:53:27;101520.91;;;14.19;100.00
70546;BME280;58098;51.680;5.134;2023-05-22T05:55:52;101521.84;;;14.18;100.00
70546;BME280;58098;51.680;5.134;2023-05-22T05:58:17;101527.56;;;14.23;100.00
70546;BME280;58098;51.680;5.134;2023-05-22T06:00:43;101539.56;;;14.36;100.00
70546;BME280;58098;51.680;5.134;2023-05-22T06:03:08;101541.28;;;14.47;100.00
70546;BME280;58098;51.680;5.134;2023-05-22T06:05:34;101530.09;;;14.45;100.00
70546;BME280;58098;51.680;5.134;2023-05-22T06:07:59;101547.19;;;14.60;100.00
70546;BME280;58098;51.680;5.134;2023-05-22T06:10:24;101545.25;;;14.62;100.00
70546;BME280;58098;51.680;5.134;2023-05-22T06:12:50;101553.44;;;14.69;100.00
70546;BME280;58098;51.680;5.134;2023-05-22T06:15:15;101547.25;;;14.70;100.00
70546;BME280;58098;51.680;5.134;2023-05-22T06:17:41;101554.72;;;14.74;100.00
70546;BME280;58098;51.680;5.134;2023-05-22T06:20:07;101553.25;;;14.81;100.00
70546;BME280;58098;51.680;5.134;2023-05-22T06:22:33;101548.88;;;14.91;100.00
70546;BME280;58098;51.680;5.134;2023-05-22T06:24:58;101559.56;;;15.09;100.00
70546;BME280;58098;51.680;5.134;2023-05-22T06:27:23;101566.00;;;15.16;100.00
70546;BME280;58098;51.680;5.134;2023-05-22T06:29:51;101573.19;;;15.23;100.00
70546;BME280;58098;51.680;5.134;2023-05-22T06:32:17;101575.13;;;15.21;100.00
70546;BME280;58098;51.680;5.134;2023-05-22T06:34:45;101582.06;;;15.23;100.00
70546;BME280;58098;51.680;5.134;2023-05-22T06:37:10;101569.00;;;15.11;100.00
70546;BME280;58098;51.680;5.134;2023-05-22T06:39:37;101578.38;;;15.04;100.00
70546;BME280;58098;51.680;5.134;2023-05-22T06:42:02;101583.06;;;15.01;100.00
70546;BME280;58098;51.680;5.134;2023-05-22T06:44:28;101582.03;;;15.13;100.00
70546;BME280;58098;51.680;5.134;2023-05-22T06:46:53;101596.75;;;15.25;100.00
70546;BME280;58098;51.680;5.134;2023-05-22T06:49:18;101593.84;;;15.28;100.00
70546;BME280;58098;51.680;5.134;2023-05-22T06:51:44;101598.41;;;15.36;100.00
70546;BME280;58098;51.680;5.134;2023-05-22T06:54:10;101591.38;;;15.36;100.00
70546;BME280;58098;51.680;5.134;2023-05-22T06:56:36;101598.59;;;15.44;100.00
70546;BME280;58098;51.680;5.134;2023-05-22T06:59:02;101613.50;;;15.64;100.00
70546;BME280;58098;51.680;5.134;2023-05-22T07:01:28;101604.38;;;15.68;100.00
70546;BME280;58098;51.680;5.134;2023-05-22T07:03:57;101596.78;;;15.74;100.00
70546;BME280;58098;51.680;5.134;2023-05-22T07:06:23;101614.13;;;15.96;100.00
70546;BME280;58098;51.680;5.134;2023-05-22T07:08:51;101616.09;;;16.13;100.00
70546;BME280;58098;51.680;5.134;2023-05-22T07:11:17;101603.63;;;16.25;100.00
70546;BME280;58098;51.680;5.134;2023-05-22T07:13:42;101586.72;;;16.27;100.00
70546;BME280;58098;51.680;5.134;2023-05-22T07:16:07;101597.09;;;16.38;100.00
70546;BME280;58098;51.680;5.134;2023-05-22T07:18:32;101595.88;;;16.52;100.00
70546;BME280;58098;51.680;5.134;2023-05-22T07:20:58;101577.53;;;16.60;100.00
70546;BME280;58098;51.680;5.134;2023-05-22T07:23:23;101590.69;;;16.70;100.00
70546;BME280;58098;51.680;5.134;2023-05-22T07:25:48;101580.56;;;16.75;100.00
70546;BME280;58098;51.680;5.134;2023-05-22T07:28:14;101588.53;;;17.02;100.00
70546;BME280;58098;51.680;5.134;2023-05-22T07:30:39;101586.31;;;17.34;100.00
70546;BME280;58098;51.680;5.134;2023-05-22T07:33:05;101596.50;;;17.56;100.00
70546;BME280;58098;51.680;5.134;2023-05-22T07:35:30;101594.94;;;17.63;100.00
70546;BME280;58098;51.680;5.134;2023-05-22T07:37:56;101585.91;;;17.66;100.00
70546;BME280;58098;51.680;5.134;2023-05-22T07:40:21;101597.00;;;17.87;100.00
70546;BME280;58098;51.680;5.134;2023-05-22T07:42:46;101591.44;;;17.90;100.00
70546;BME280;58098;51.680;5.134;2023-05-22T07:45:12;101601.38;;;17.78;100.00
70546;BME280;58098;51.680;5.134;2023-05-22T07:47:37;101605.38;;;17.83;100.00
70546;BME280;58098;51.680;5.134;2023-05-22T07:50:03;101592.41;;;17.71;100.00
70546;BME280;58098;51.680;5.134;2023-05-22T07:52:29;101597.75;;;17.62;100.00
70546;BME280;58098;51.680;5.134;2023-05-22T07:54:56;101612.41;;;17.64;100.00
70546;BME280;58098;51.680;5.134;2023-05-22T07:57:21;101599.94;;;17.66;100.00
70546;BME280;58098;51.680;5.134;2023-05-22T07:59:47;101609.50;;;17.67;100.00
70546;BME280;58098;51.680;5.134;2023-05-22T08:02:13;101611.16;;;17.68;100.00
70546;BME280;58098;51.680;5.134;2023-05-22T08:04:38;101613.53;;;17.89;100.00
70546;BME280;58098;51.680;5.134;2023-05-22T08:07:04;101614.75;;;17.95;100.00
70546;BME280;58098;51.680;5.134;2023-05-22T08:09:29;101613.53;;;18.07;100.00
70546;BME280;58098;51.680;5.134;2023-05-22T08:11:55;101606.66;;;18.14;100.00
70546;BME280;58098;51.680;5.134;2023-05-22T08:14:20;101619.22;;;18.29;100.00
70546;BME280;58098;51.680;5.134;2023-05-22T08:16:46;101627.06;;;18.39;100.00
70546;BME280;58098;51.680;5.134;2023-05-22T08:19:11;101621.19;;;18.27;100.00
70546;BME280;58098;51.680;5.134;2023-05-22T08:21:36;101623.97;;;18.61;100.00
70546;BME280;58098;51.680;5.134;2023-05-22T08:24:02;101612.63;;;18.94;100.00
70546;BME280;58098;51.680;5.134;2023-05-22T08:26:28;101616.97;;;19.03;100.00
70546;BME280;58098;51.680;5.134;2023-05-22T08:28:53;101629.16;;;18.96;100.00
70546;BME280;58098;51.680;5.134;2023-05-22T08:31:18;101615.97;;;18.79;100.00
70546;BME280;58098;51.680;5.134;2023-05-22T08:33:44;101618.53;;;18.63;100.00
70546;BME280;58098;51.680;5.134;2023-05-22T08:36:09;101618.50;;;18.80;100.00
70546;BME280;58098;51.680;5.134;2023-05-22T08:38:35;101622.63;;;19.08;100.00
70546;BME280;58098;51.680;5.134;2023-05-22T08:41:01;101609.13;;;19.20;100.00
70546;BME280;58098;51.680;5.134;2023-05-22T08:43:26;101614.13;;;19.64;100.00
70546;BME280;58098;51.680;5.134;2023-05-22T08:46:12;101624.47;;;19.92;100.00
70546;BME280;58098;51.680;5.134;2023-05-22T08:48:40;101617.03;;;19.95;100.00
70546;BME280;58098;51.680;5.134;2023-05-22T08:51:06;101618.69;;;19.96;100.00
70546;BME280;58098;51.680;5.134;2023-05-22T08:53:35;101612.38;;;19.89;100.00
70546;BME280;58098;51.680;5.134;2023-05-22T08:56:02;101612.56;;;20.04;100.00
70546;BME280;58098;51.680;5.134;2023-05-22T08:58:30;101634.78;;;20.03;100.00
70546;BME280;58098;51.680;5.134;2023-05-22T09:00:56;101624.03;;;20.12;100.00
70546;BME280;58098;51.680;5.134;2023-05-22T09:03:25;101612.44;;;20.05;100.00
70546;BME280;58098;51.680;5.134;2023-05-22T09:05:52;101623.69;;;20.15;100.00
70546;BME280;58098;51.680;5.134;2023-05-22T09:08:18;101611.47;;;20.30;100.00
70546;BME280;58098;51.680;5.134;2023-05-22T09:10:44;101620.91;;;20.33;100.00
70546;BME280;58098;51.680;5.134;2023-05-22T09:13:09;101609.16;;;20.52;100.00
70546;BME280;58098;51.680;5.134;2023-05-22T09:15:36;101610.47;;;20.39;100.00
70546;BME280;58098;51.680;5.134;2023-05-22T09:18:02;101629.56;;;20.51;100.00
70546;BME280;58098;51.680;5.134;2023-05-22T09:20:33;101615.28;;;20.52;100.00
70546;BME280;58098;51.680;5.134;2023-05-22T09:22:59;101614.47;;;20.35;100.00
70546;BME280;58098;51.680;5.134;2023-05-22T09:25:26;101620.09;;;20.49;100.00
70546;BME280;58098;51.680;5.134;2023-05-22T09:27:51;101617.78;;;20.54;100.00
70546;BME280;58098;51.680;5.134;2023-05-22T09:30:17;101614.13;;;20.71;100.00
70546;BME280;58098;51.680;5.134;2023-05-22T09:32:45;101607.81;;;20.72;100.00
70546;BME280;58098;51.680;5.134;2023-05-22T09:35:12;101615.75;;;20.88;100.00
70546;BME280;58098;51.680;5.134;2023-05-22T09:37:38;101617.72;;;20.86;100.00
70546;BME280;58098;51.680;5.134;2023-05-22T09:40:07;101607.09;;;21.02;100.00
70546;BME280;58098;51.680;5.134;2023-05-22T09:42:35;101609.19;;;21.23;100.00
70546;BME280;58098;51.680;5.134;2023-05-22T09:45:05;101608.94;;;21.48;100.00
70546;BME280;58098;51.680;5.134;2023-05-22T09:47:30;101605.81;;;21.76;100.00
70546;BME280;58098;51.680;5.134;2023-05-22T09:49:57;101598.72;;;21.68;100.00
70546;BME280;58098;51.680;5.134;2023-05-22T09:52:23;101608.41;;;21.84;100.00
70546;BME280;58098;51.680;5.134;2023-05-22T09:54:50;101611.59;;;22.55;100.00
70546;BME280;58098;51.680;5.134;2023-05-22T09:57:20;101600.16;;;22.47;100.00
70546;BME280;58098;51.680;5.134;2023-05-22T09:59:53;101618.88;;;22.39;100.00
70546;BME280;58098;51.680;5.134;2023-05-22T10:02:22;101602.53;;;22.64;100.00
70546;BME280;58098;51.680;5.134;2023-05-22T10:04:48;101616.50;;;22.81;100.00
70546;BME280;58098;51.680;5.134;2023-05-22T10:07:35;101608.91;;;22.55;100.00
70546;BME280;58098;51.680;5.134;2023-05-22T10:10:08;101601.56;;;22.57;100.00
70546;BME280;58098;51.680;5.134;2023-05-22T10:12:40;101584.91;;;22.26;100.00
70546;BME280;58098;51.680;5.134;2023-05-22T10:15:09;101614.25;;;22.55;100.00
70546;BME280;58098;51.680;5.134;2023-05-22T10:17:35;101603.06;;;22.37;100.00
70546;BME280;58098;51.680;5.134;2023-05-22T10:20:02;101612.28;;;22.49;100.00
70546;BME280;58098;51.680;5.134;2023-05-22T10:22:34;101608.22;;;22.61;100.00
70546;BME280;58098;51.680;5.134;2023-05-22T10:25:01;101607.38;;;22.61;100.00
70546;BME280;58098;51.680;5.134;2023-05-22T10:27:26;101622.09;;;22.71;100.00
70546;BME280;58098;51.680;5.134;2023-05-22T10:29:57;101610.13;;;23.05;100.00
70546;BME280;58098;51.680;5.134;2023-05-22T10:32:40;101610.66;;;23.15;100.00
70546;BME280;58098;51.680;5.134;2023-05-22T10:37:42;101603.66;;;23.57;100.00
70546;BME280;58098;51.680;5.134;2023-05-22T10:40:10;101596.41;;;23.51;100.00
70546;BME280;58098;51.680;5.134;2023-05-22T10:42:37;101599.72;;;23.24;100.00
70546;BME280;58098;51.680;5.134;2023-05-22T10:45:05;101599.19;;;23.43;100.00
70546;BME280;58098;51.680;5.134;2023-05-22T10:47:34;101600.63;;;23.60;100.00
70546;BME280;58098;51.680;5.134;2023-05-22T10:50:06;101596.53;;;23.79;100.00
70546;BME280;58098;51.680;5.134;2023-05-22T10:52:31;101601.28;;;23.84;100.00
70546;BME280;58098;51.680;5.134;2023-05-22T10:54:59;101591.81;;;24.17;100.00
70546;BME280;58098;51.680;5.134;2023-05-22T10:57:24;101591.72;;;24.53;100.00
70546;BME280;58098;51.680;5.134;2023-05-22T10:59:50;101590.34;;;24.36;100.00
70546;BME280;58098;51.680;5.134;2023-05-22T11:02:24;101589.84;;;24.25;100.00
70546;BME280;58098;51.680;5.134;2023-05-22T11:05:10;101593.78;;;24.08;100.00
70546;BME280;58098;51.680;5.134;2023-05-22T11:07:40;101591.25;;;24.21;100.00
70546;BME280;58098;51.680;5.134;2023-05-22T11:10:06;101596.44;;;24.29;100.00
70546;BME280;58098;51.680;5.134;2023-05-22T11:12:31;101590.97;;;24.38;100.00
70546;BME280;58098;51.680;5.134;2023-05-22T11:15:16;101596.91;;;24.82;100.00
70546;BME280;58098;51.680;5.134;2023-05-22T11:17:46;101591.44;;;24.20;100.00
70546;BME280;58098;51.680;5.134;2023-05-22T11:20:20;101600.16;;;24.56;100.00
70546;BME280;58098;51.680;5.134;2023-05-22T11:22:55;101586.66;;;24.64;100.00
70546;BME280;58098;51.680;5.134;2023-05-22T11:25:21;101581.50;;;24.84;100.00
70546;BME280;58098;51.680;5.134;2023-05-22T11:27:47;101595.25;;;24.87;100.00
70546;BME280;58098;51.680;5.134;2023-05-22T11:30:14;101585.38;;;25.56;100.00
70546;BME280;58098;51.680;5.134;2023-05-22T11:32:41;101585.75;;;25.53;100.00
70546;BME280;58098;51.680;5.134;2023-05-22T11:35:17;101589.59;;;25.38;100.00
70546;BME280;58098;51.680;5.134;2023-05-22T11:37:43;101575.69;;;25.15;100.00
70546;BME280;58098;51.680;5.134;2023-05-22T11:40:09;101576.53;;;25.15;100.00
70546;BME280;58098;51.680;5.134;2023-05-22T11:42:36;101590.41;;;25.99;100.00
70546;BME280;58098;51.680;5.134;2023-05-22T11:45:03;101572.50;;;25.80;100.00
70546;BME280;58098;51.680;5.134;2023-05-22T11:47:28;101571.16;;;25.56;100.00
70546;BME280;58098;51.680;5.134;2023-05-22T11:49:57;101573.13;;;25.34;100.00
70546;BME280;58098;51.680;5.134;2023-05-22T11:52:24;101577.19;;;25.65;100.00
70546;BME280;58098;51.680;5.134;2023-05-22T11:54:52;101580.03;;;25.56;100.00
70546;BME280;58098;51.680;5.134;2023-05-22T11:57:18;101571.47;;;25.94;100.00
70546;BME280;58098;51.680;5.134;2023-05-22T11:59:46;101577.28;;;26.76;100.00
70546;BME280;58098;51.680;5.134;2023-05-22T12:02:12;101582.66;;;27.33;100.00
70546;BME280;58098;51.680;5.134;2023-05-22T12:04:38;101577.28;;;26.76;100.00
70546;BME280;58098;51.680;5.134;2023-05-22T12:07:04;101565.94;;;26.61;100.00
70546;BME280;58098;51.680;5.134;2023-05-22T12:09:29;101584.44;;;25.97;100.00
70546;BME280;58098;51.680;5.134;2023-05-22T12:11:55;101575.97;;;25.74;100.00
70546;BME280;58098;51.680;5.134;2023-05-22T12:14:25;101569.13;;;25.58;100.00
70546;BME280;58098;51.680;5.134;2023-05-22T12:16:51;101575.00;;;25.40;100.00
70546;BME280;58098;51.680;5.134;2023-05-22T12:19:17;101563.50;;;25.40;100.00
70546;BME280;58098;51.680;5.134;2023-05-22T12:21:43;101581.97;;;25.35;100.00
70546;BME280;58098;51.680;5.134;2023-05-22T12:24:09;101570.16;;;25.64;100.00
70546;BME280;58098;51.680;5.134;2023-05-22T12:26:35;101581.81;;;26.30;100.00
70546;BME280;58098;51.680;5.134;2023-05-22T12:29:01;101572.34;;;26.53;100.00
70546;BME280;58098;51.680;5.134;2023-05-22T12:31:26;101584.22;;;27.10;100.00
70546;BME280;58098;51.680;5.134;2023-05-22T12:33:55;101564.63;;;27.16;100.00
70546;BME280;58098;51.680;5.134;2023-05-22T12:36:37;101570.09;;;27.34;100.00
70546;BME280;58098;51.680;5.134;2023-05-22T12:39:09;101577.84;;;27.55;100.00
70546;BME280;58098;51.680;5.134;2023-05-22T12:41:38;101562.09;;;27.27;100.00
70546;BME280;58098;51.680;5.134;2023-05-22T12:44:04;101562.03;;;27.47;100.00
70546;BME280;58098;51.680;5.134;2023-05-22T12:46:30;101565.00;;;29.12;100.00
70546;BME280;58098;51.680;5.134;2023-05-22T12:48:56;101559.84;;;28.92;100.00
70546;BME280;58098;51.680;5.134;2023-05-22T12:51:21;101574.41;;;28.42;100.00
70546;BME280;58098;51.680;5.134;2023-05-22T12:53:48;101562.31;;;28.01;100.00